Time;durP1;ratioP1;P1;durP2;ratioP2;P2;SDS_P1;SDS_P2;PMS_P1;PMS_P2;Temp;Humidity;BMP_temperature;BMP_pressure;BME280_temperature;BME280_humidity;BME280_pressure;Samples;Min_cycle;Max_cycle;Signal;HPM_P1;HPM_P2
2022/09/07 00:02:00;;;;;;;;;;;15.30;99.90;;;;;;5089849;28;19943;-64
2022/09/07 00:04:25;;;;;;;;;;;15.20;99.90;;;;;;5088733;28;19916;-64
2022/09/07 00:06:51;;;;;;;;;;;15.20;99.90;;;;;;5086316;28;19925;-64
2022/09/07 00:09:16;;;;;;;;;;;15.30;99.90;;;;;;5090258;28;20200;-64
2022/09/07 00:11:42;;;;;;;;;;;15.30;99.90;;;;;;5089912;28;19904;-64
2022/09/07 00:14:07;;;;;;;;;;;15.30;99.90;;;;;;5092929;28;19905;-64
2022/09/07 00:16:33;;;;;;;;;;;15.20;99.90;;;;;;5092106;28;19913;-65
2022/09/07 00:19:00;;;;;;;;;;;15.30;99.90;;;;;;5090408;28;19913;-65
2022/09/07 00:21:26;;;;;;;;;;;15.30;99.90;;;;;;5092954;28;19913;-64
2022/09/07 00:23:52;;;;;;;;;;;15.30;99.90;;;;;;5084682;28;19975;-65
2022/09/07 00:26:21;;;;;;;;;;;15.40;99.90;;;;;;5090359;28;21024;-64
2022/09/07 00:28:47;;;;;;;;;;;15.40;99.90;;;;;;5087885;28;19921;-64
2022/09/07 00:31:15;;;;;;;;;;;15.40;99.90;;;;;;5095167;28;19930;-64
2022/09/07 00:33:41;;;;;;;;;;;15.40;99.90;;;;;;5087444;28;19927;-64
2022/09/07 00:36:07;;;;;;;;;;;15.40;99.90;;;;;;5084617;28;19928;-66
2022/09/07 00:38:32;;;;;;;;;;;15.40;99.90;;;;;;5088838;28;19904;-65
2022/09/07 00:40:58;;;;;;;;;;;15.30;99.90;;;;;;5092875;28;19904;-65
2022/09/07 00:43:35;;;;;;;;;;;15.30;99.90;;;;;;5092458;28;19932;-65
2022/09/07 00:46:02;;;;;;;;;;;15.30;99.90;;;;;;5088194;28;19908;-64
2022/09/07 00:48:30;;;;;;;;;;;15.40;99.90;;;;;;5092996;28;19920;-64
2022/09/07 00:51:00;;;;;;;;;;;15.40;99.90;;;;;;5080866;28;19959;-64
2022/09/07 00:53:33;;;;;;;;;;;15.50;99.90;;;;;;5085335;28;19924;-65
2022/09/07 00:56:00;;;;;;;;;;;15.50;99.90;;;;;;5086949;28;19921;-65
2022/09/07 00:58:26;;;;;;;;;;;15.60;99.90;;;;;;5082095;28;20367;-65
2022/09/07 01:00:51;;;;;;;;;;;15.50;99.90;;;;;;5085086;28;19926;-62
2022/09/07 01:03:20;;;;;;;;;;;15.70;99.90;;;;;;5076917;28;19964;-63
2022/09/07 01:05:57;;;;;;;;;;;15.90;99.90;;;;;;5087232;28;19916;-66
2022/09/07 01:08:23;;;;;;;;;;;16.00;99.90;;;;;;5076224;28;20047;-64
2022/09/07 01:10:49;;;;;;;;;;;16.30;99.90;;;;;;5074042;28;20339;-66
2022/09/07 01:13:15;;;;;;;;;;;16.50;99.90;;;;;;5074866;28;19917;-64
2022/09/07 01:15:40;;;;;;;;;;;16.60;99.90;;;;;;5080833;28;20027;-65
2022/09/07 01:18:20;;;;;;;;;;;16.70;99.90;;;;;;5088881;28;19927;-64
2022/09/07 01:21:15;;;;;;;;;;;16.80;99.90;;;;;;5088561;28;19924;-65
2022/09/07 01:23:43;;;;;;;;;;;16.90;99.90;;;;;;5028586;28;19941;-64
2022/09/07 01:26:12;;;;;;;;;;;16.90;99.90;;;;;;5090293;28;19919;-65
2022/09/07 01:28:37;;;;;;;;;;;16.90;99.90;;;;;;5081016;28;20498;-66
2022/09/07 01:31:10;;;;;;;;;;;16.90;99.90;;;;;;5086664;28;19912;-65
2022/09/07 01:33:41;;;;;;;;;;;17.00;99.90;;;;;;5066912;28;20390;-66
2022/09/07 01:36:10;;;;;;;;;;;16.90;99.90;;;;;;5076045;28;20081;-65
2022/09/07 01:38:38;;;;;;;;;;;16.90;99.90;;;;;;5089360;28;19912;-67
2022/09/07 01:41:04;;;;;;;;;;;17.00;99.90;;;;;;5084876;28;19913;-65
2022/09/07 01:43:35;;;;;;;;;;;16.90;99.90;;;;;;5087466;28;19938;-65
2022/09/07 01:46:02;;;;;;;;;;;17.00;99.90;;;;;;5076001;28;20442;-65
2022/09/07 01:48:29;;;;;;;;;;;17.00;99.90;;;;;;5083409;28;19924;-64
2022/09/07 01:50:57;;;;;;;;;;;17.00;99.90;;;;;;5091817;28;19947;-65
2022/09/07 01:53:23;;;;;;;;;;;17.10;99.90;;;;;;5088148;28;19935;-65
2022/09/07 01:55:54;;;;;;;;;;;17.00;99.90;;;;;;5089248;28;19924;-65
2022/09/07 01:58:25;;;;;;;;;;;17.10;99.90;;;;;;5082315;28;19904;-65
2022/09/07 02:00:59;;;;;;;;;;;17.10;99.90;;;;;;5088241;28;19917;-65
2022/09/07 02:03:34;;;;;;;;;;;17.10;99.90;;;;;;5068827;28;19978;-65
2022/09/07 02:06:20;;;;;;;;;;;17.10;99.90;;;;;;5058720;28;19959;-65
2022/09/07 02:08:51;;;;;;;;;;;17.20;99.90;;;;;;5018867;28;19925;-66
2022/09/07 02:11:22;;;;;;;;;;;17.20;99.90;;;;;;5061945;28;20287;-65
2022/09/07 02:13:52;;;;;;;;;;;17.20;99.90;;;;;;5056171;28;19913;-65
2022/09/07 02:16:28;;;;;;;;;;;17.30;99.90;;;;;;5057474;28;20003;-65
2022/09/07 02:19:00;;;;;;;;;;;17.30;99.90;;;;;;5064492;28;19920;-65
2022/09/07 02:21:29;;;;;;;;;;;17.30;99.90;;;;;;5063341;28;19946;-65
2022/09/07 02:23:59;;;;;;;;;;;17.40;99.90;;;;;;5066342;28;19912;-65
2022/09/07 02:26:27;;;;;;;;;;;17.40;99.90;;;;;;5064370;28;19916;-66
2022/09/07 02:28:53;;;;;;;;;;;17.40;99.90;;;;;;5065144;28;19994;-65
2022/09/07 02:31:18;;;;;;;;;;;17.30;99.90;;;;;;5031996;28;19916;-65
2022/09/07 02:33:44;;;;;;;;;;;17.40;99.90;;;;;;5065429;28;19916;-66
2022/09/07 02:36:11;;;;;;;;;;;17.40;99.90;;;;;;5062906;28;19912;-66
2022/09/07 02:38:37;;;;;;;;;;;17.40;99.90;;;;;;5041909;28;19913;-66
2022/09/07 02:41:03;;;;;;;;;;;17.40;99.90;;;;;;5054269;28;19917;-65
2022/09/07 02:43:35;;;;;;;;;;;17.40;99.90;;;;;;5060519;28;19977;-65
2022/09/07 02:46:20;;;;;;;;;;;17.40;99.90;;;;;;5064841;28;19978;-65
2022/09/07 02:49:00;;;;;;;;;;;17.30;99.90;;;;;;5061800;28;19912;-65
2022/09/07 02:51:28;;;;;;;;;;;17.30;99.90;;;;;;5071202;28;19927;-65
2022/09/07 02:53:54;;;;;;;;;;;17.20;99.90;;;;;;5073279;28;19917;-64
2022/09/07 02:56:29;;;;;;;;;;;17.20;99.90;;;;;;5081937;28;19951;-64
2022/09/07 02:59:02;;;;;;;;;;;17.10;99.90;;;;;;5092109;28;19896;-64
2022/09/07 03:02:06;;;;;;;;;;;17.20;99.90;;;;;;5090035;28;19960;-64
2022/09/07 03:04:33;;;;;;;;;;;17.20;99.90;;;;;;5001407;28;21261;-65
2022/09/07 03:07:04;;;;;;;;;;;17.20;99.90;;;;;;4997700;28;19914;-65
2022/09/07 03:09:36;;;;;;;;;;;17.20;99.90;;;;;;5045992;28;20011;-63
2022/09/07 03:12:03;;;;;;;;;;;17.20;99.90;;;;;;5092691;28;19907;-64
2022/09/07 03:14:32;;;;;;;;;;;17.10;99.90;;;;;;5092115;28;19917;-64
2022/09/07 03:16:58;;;;;;;;;;;17.10;99.90;;;;;;5089171;28;19919;-65
2022/09/07 03:19:23;;;;;;;;;;;17.10;99.90;;;;;;5082486;28;19913;-64
2022/09/07 03:21:49;;;;;;;;;;;17.10;99.90;;;;;;5086870;28;19912;-65
2022/09/07 03:24:14;;;;;;;;;;;17.20;99.90;;;;;;5086700;28;19932;-65
2022/09/07 03:26:42;;;;;;;;;;;17.10;99.90;;;;;;5084705;28;19912;-64
2022/09/07 03:29:07;;;;;;;;;;;17.10;99.90;;;;;;5081153;28;19931;-65
2022/09/07 03:31:33;;;;;;;;;;;17.10;99.90;;;;;;5091797;28;19900;-66
2022/09/07 03:33:59;;;;;;;;;;;17.10;99.90;;;;;;5087680;28;19921;-64
2022/09/07 03:36:24;;;;;;;;;;;17.10;99.90;;;;;;5079427;28;19981;-65
2022/09/07 03:38:50;;;;;;;;;;;17.10;99.90;;;;;;5079955;28;19912;-64
2022/09/07 03:41:16;;;;;;;;;;;17.10;99.90;;;;;;5087752;28;19935;-64
2022/09/07 03:43:41;;;;;;;;;;;17.00;99.90;;;;;;5085163;28;19917;-64
2022/09/07 03:46:09;;;;;;;;;;;17.10;99.90;;;;;;5084467;28;19924;-64
2022/09/07 03:48:35;;;;;;;;;;;17.10;99.90;;;;;;5086876;28;19912;-64
2022/09/07 03:51:02;;;;;;;;;;;17.00;99.90;;;;;;5072440;28;20378;-65
2022/09/07 03:53:31;;;;;;;;;;;17.00;99.90;;;;;;5089726;28;19912;-66
2022/09/07 03:55:58;;;;;;;;;;;17.00;99.90;;;;;;5095306;28;19923;-65
2022/09/07 03:58:24;;;;;;;;;;;16.90;99.90;;;;;;5078448;28;19993;-65
2022/09/07 04:00:49;;;;;;;;;;;16.90;99.90;;;;;;5084563;28;19912;-64
2022/09/07 04:03:15;;;;;;;;;;;16.90;99.90;;;;;;5092378;28;19915;-64
2022/09/07 04:05:40;;;;;;;;;;;16.80;99.90;;;;;;5095078;28;19912;-64
2022/09/07 04:08:06;;;;;;;;;;;16.80;99.90;;;;;;5090290;28;19912;-64
2022/09/07 04:10:35;;;;;;;;;;;16.80;99.90;;;;;;5074326;28;19923;-64
2022/09/07 04:13:01;;;;;;;;;;;16.60;99.90;;;;;;5094216;28;19923;-64
2022/09/07 04:15:27;;;;;;;;;;;16.70;99.90;;;;;;5093415;28;19904;-64
2022/09/07 04:17:53;;;;;;;;;;;16.60;99.90;;;;;;5092493;28;19990;-64
2022/09/07 04:20:18;;;;;;;;;;;16.70;99.90;;;;;;5090215;28;19921;-64
2022/09/07 04:22:46;;;;;;;;;;;16.60;99.90;;;;;;5095212;28;19913;-63
2022/09/07 04:25:11;;;;;;;;;;;16.50;99.90;;;;;;5085013;28;19897;-64
2022/09/07 04:27:37;;;;;;;;;;;16.40;99.90;;;;;;5083776;28;19963;-65
2022/09/07 04:30:03;;;;;;;;;;;16.50;99.90;;;;;;5089252;28;19921;-64
2022/09/07 04:32:28;;;;;;;;;;;16.40;99.90;;;;;;5089974;28;19916;-64
2022/09/07 04:34:54;;;;;;;;;;;16.40;99.90;;;;;;5080340;28;19920;-65
2022/09/07 04:37:19;;;;;;;;;;;16.50;99.90;;;;;;5089178;28;19995;-65
2022/09/07 04:39:45;;;;;;;;;;;16.60;99.90;;;;;;5084919;28;19919;-65
2022/09/07 04:42:10;;;;;;;;;;;16.70;99.90;;;;;;5093720;28;19928;-65
2022/09/07 04:44:36;;;;;;;;;;;16.80;99.90;;;;;;5066202;28;19920;-65
2022/09/07 04:47:01;;;;;;;;;;;16.80;99.90;;;;;;5087812;28;19976;-65
2022/09/07 04:49:27;;;;;;;;;;;16.90;99.90;;;;;;5081937;28;19939;-64
2022/09/07 04:51:52;;;;;;;;;;;17.00;99.90;;;;;;5091086;28;19920;-64
2022/09/07 04:54:18;;;;;;;;;;;17.10;99.90;;;;;;5066340;28;19913;-64
2022/09/07 04:56:44;;;;;;;;;;;17.00;99.90;;;;;;5092914;28;19909;-64
2022/09/07 04:59:09;;;;;;;;;;;17.10;99.90;;;;;;5062548;28;19917;-65
2022/09/07 05:01:35;;;;;;;;;;;17.20;99.90;;;;;;5089689;28;20032;-64
2022/09/07 05:04:01;;;;;;;;;;;17.20;99.90;;;;;;5088891;28;20019;-65
2022/09/07 05:06:26;;;;;;;;;;;17.20;99.90;;;;;;5088003;28;19916;-65
2022/09/07 05:08:52;;;;;;;;;;;17.30;99.90;;;;;;5086200;28;19928;-67
2022/09/07 05:11:19;;;;;;;;;;;17.30;99.90;;;;;;5088359;28;19919;-65
2022/09/07 05:13:45;;;;;;;;;;;17.30;99.90;;;;;;5068478;28;19912;-65
2022/09/07 05:16:12;;;;;;;;;;;17.30;99.90;;;;;;5092576;28;19912;-65
2022/09/07 05:18:37;;;;;;;;;;;17.30;99.90;;;;;;5084313;28;19916;-64
2022/09/07 05:21:10;;;;;;;;;;;17.30;99.90;;;;;;5069935;28;20004;-66
2022/09/07 05:23:36;;;;;;;;;;;17.30;99.90;;;;;;5086460;28;19912;-65
2022/09/07 05:26:02;;;;;;;;;;;17.40;99.90;;;;;;5088571;28;19978;-65
2022/09/07 05:28:27;;;;;;;;;;;17.40;99.90;;;;;;5086243;28;20355;-65
2022/09/07 05:30:53;;;;;;;;;;;17.40;99.90;;;;;;5067679;28;19979;-67
2022/09/07 05:33:18;;;;;;;;;;;17.40;99.90;;;;;;5080278;28;19920;-65
2022/09/07 05:35:54;;;;;;;;;;;17.30;99.90;;;;;;5081188;28;19913;-65
2022/09/07 05:38:19;;;;;;;;;;;17.30;99.90;;;;;;5080347;28;19919;-65
2022/09/07 05:40:46;;;;;;;;;;;17.30;99.90;;;;;;5085164;28;19900;-64
2022/09/07 05:43:11;;;;;;;;;;;17.30;99.90;;;;;;5085689;28;19935;-65
2022/09/07 05:45:37;;;;;;;;;;;17.30;99.90;;;;;;5092014;28;20007;-64
2022/09/07 05:48:02;;;;;;;;;;;17.30;99.90;;;;;;5082278;28;20028;-65
2022/09/07 05:50:28;;;;;;;;;;;17.20;99.90;;;;;;5092375;28;19920;-64
2022/09/07 05:52:53;;;;;;;;;;;17.20;99.90;;;;;;5085980;28;20195;-65
2022/09/07 05:55:19;;;;;;;;;;;17.10;99.90;;;;;;5070658;28;19935;-65
2022/09/07 05:57:44;;;;;;;;;;;17.00;99.90;;;;;;5088792;28;19999;-64
2022/09/07 06:00:10;;;;;;;;;;;17.00;99.90;;;;;;5084905;28;20023;-65
2022/09/07 06:02:36;;;;;;;;;;;16.90;99.90;;;;;;5069522;28;19960;-65
2022/09/07 06:05:02;;;;;;;;;;;16.80;99.90;;;;;;5090386;28;19939;-64
2022/09/07 06:07:27;;;;;;;;;;;16.80;99.90;;;;;;5089447;28;19900;-65
2022/09/07 06:09:53;;;;;;;;;;;16.90;99.90;;;;;;5091360;28;19919;-64
2022/09/07 06:12:18;;;;;;;;;;;16.90;99.90;;;;;;5089874;28;19912;-65
2022/09/07 06:14:44;;;;;;;;;;;17.00;99.90;;;;;;5085008;28;20348;-64
2022/09/07 06:17:09;;;;;;;;;;;17.10;99.90;;;;;;5090717;28;19912;-65
2022/09/07 06:19:35;;;;;;;;;;;17.20;99.90;;;;;;5087427;28;19912;-64
2022/09/07 06:22:01;;;;;;;;;;;17.30;99.90;;;;;;5090109;28;20002;-65
2022/09/07 06:24:26;;;;;;;;;;;17.40;99.90;;;;;;5069727;28;19925;-65
2022/09/07 06:26:52;;;;;;;;;;;17.40;99.90;;;;;;5087080;28;19924;-64
2022/09/07 06:29:17;;;;;;;;;;;17.40;99.90;;;;;;5089250;28;19920;-65
2022/09/07 06:31:43;;;;;;;;;;;17.40;99.90;;;;;;5090779;28;20374;-64
2022/09/07 06:34:08;;;;;;;;;;;17.40;99.90;;;;;;5078433;28;19957;-65
2022/09/07 06:36:34;;;;;;;;;;;17.40;99.90;;;;;;5060917;28;19913;-64
2022/09/07 06:39:02;;;;;;;;;;;17.50;99.90;;;;;;5078663;28;20368;-64
2022/09/07 06:41:29;;;;;;;;;;;17.50;99.90;;;;;;5062561;28;20545;-64
2022/09/07 06:43:55;;;;;;;;;;;17.60;99.90;;;;;;5076201;28;19916;-65
2022/09/07 06:46:22;;;;;;;;;;;17.50;99.90;;;;;;5068644;28;19997;-66
2022/09/07 06:48:50;;;;;;;;;;;17.50;99.90;;;;;;5059632;28;20389;-65
2022/09/07 06:51:17;;;;;;;;;;;17.50;99.90;;;;;;5063885;28;19912;-65
2022/09/07 06:53:44;;;;;;;;;;;17.60;99.90;;;;;;5066392;28;19959;-65
2022/09/07 06:56:13;;;;;;;;;;;17.60;99.90;;;;;;5054802;28;20422;-65
2022/09/07 06:58:39;;;;;;;;;;;17.60;99.90;;;;;;5049263;28;20031;-65
2022/09/07 07:01:07;;;;;;;;;;;17.70;99.90;;;;;;5062123;28;19995;-66
2022/09/07 07:03:32;;;;;;;;;;;17.70;99.90;;;;;;5057144;28;20300;-65
2022/09/07 07:05:58;;;;;;;;;;;17.70;99.90;;;;;;5059853;28;20474;-66
2022/09/07 07:08:24;;;;;;;;;;;17.80;99.90;;;;;;5058963;28;20645;-66
2022/09/07 07:10:50;;;;;;;;;;;17.90;99.90;;;;;;5058691;28;20028;-65
2022/09/07 07:13:16;;;;;;;;;;;17.90;99.90;;;;;;5059739;28;20078;-66
2022/09/07 07:15:41;;;;;;;;;;;18.00;99.90;;;;;;5059234;28;19913;-66
2022/09/07 07:18:07;;;;;;;;;;;18.00;99.90;;;;;;5048817;28;19913;-66
2022/09/07 07:20:36;;;;;;;;;;;18.00;99.90;;;;;;5059623;28;20379;-66
2022/09/07 07:23:02;;;;;;;;;;;18.10;99.90;;;;;;5062416;28;19921;-66
2022/09/07 07:25:28;;;;;;;;;;;18.10;99.90;;;;;;5044532;28;19920;-65
2022/09/07 07:27:53;;;;;;;;;;;18.20;99.90;;;;;;5062323;28;20352;-66
2022/09/07 07:30:19;;;;;;;;;;;18.20;99.90;;;;;;5063935;28;19912;-66
2022/09/07 07:32:45;;;;;;;;;;;18.20;99.90;;;;;;5067258;28;19912;-65
2022/09/07 07:35:12;;;;;;;;;;;18.20;99.90;;;;;;5062590;28;19927;-66
2022/09/07 07:37:37;;;;;;;;;;;18.10;99.90;;;;;;5063430;28;19953;-67
2022/09/07 07:40:04;;;;;;;;;;;18.10;99.90;;;;;;5064831;28;19939;-65
2022/09/07 07:42:29;;;;;;;;;;;18.20;99.90;;;;;;5069638;28;20013;-66
2022/09/07 07:44:55;;;;;;;;;;;18.30;99.90;;;;;;5069902;28;20393;-66
2022/09/07 07:47:21;;;;;;;;;;;18.30;99.90;;;;;;5049802;28;19912;-66
2022/09/07 07:49:46;;;;;;;;;;;18.40;99.90;;;;;;5050861;28;20268;-66
2022/09/07 07:52:12;;;;;;;;;;;18.40;99.90;;;;;;5071684;28;20106;-66
2022/09/07 07:54:38;;;;;;;;;;;18.40;99.90;;;;;;5066249;28;19931;-66
2022/09/07 07:57:04;;;;;;;;;;;18.40;99.90;;;;;;5073257;28;19995;-66
2022/09/07 07:59:30;;;;;;;;;;;18.40;99.90;;;;;;5071014;28;19923;-66
2022/09/07 08:01:55;;;;;;;;;;;18.50;99.90;;;;;;5071716;28;19996;-66
2022/09/07 08:04:21;;;;;;;;;;;18.70;99.90;;;;;;5055606;28;19930;-66
2022/09/07 08:06:47;;;;;;;;;;;18.80;99.90;;;;;;5069895;28;20041;-65
2022/09/07 08:09:13;;;;;;;;;;;18.90;99.90;;;;;;5051085;28;19960;-66
2022/09/07 08:11:39;;;;;;;;;;;19.00;99.90;;;;;;5071933;28;19913;-65
2022/09/07 08:14:05;;;;;;;;;;;19.20;99.90;;;;;;5062235;28;20421;-66
2022/09/07 08:16:31;;;;;;;;;;;19.30;99.90;;;;;;5066522;28;20008;-66
2022/09/07 08:18:57;;;;;;;;;;;19.40;99.90;;;;;;5068439;28;19935;-67
2022/09/07 08:21:24;;;;;;;;;;;19.40;99.90;;;;;;5069930;28;20201;-65
2022/09/07 08:23:49;;;;;;;;;;;19.60;99.90;;;;;;5051304;28;19968;-67
2022/09/07 08:26:15;;;;;;;;;;;19.60;99.90;;;;;;5048964;28;19959;-67
2022/09/07 08:28:42;;;;;;;;;;;19.70;99.90;;;;;;5066137;28;19916;-66
2022/09/07 08:31:09;;;;;;;;;;;19.90;99.90;;;;;;5071210;28;20371;-66
2022/09/07 08:33:36;;;;;;;;;;;19.90;99.90;;;;;;5074306;28;19912;-66
2022/09/07 08:36:06;;;;;;;;;;;19.90;99.90;;;;;;5069735;28;19926;-66
2022/09/07 08:38:32;;;;;;;;;;;20.10;99.90;;;;;;5065802;28;19924;-66
2022/09/07 08:40:58;;;;;;;;;;;20.10;99.90;;;;;;5070805;28;19912;-66
2022/09/07 08:43:39;;;;;;;;;;;19.90;99.90;;;;;;5072913;28;19927;-66
2022/09/07 08:46:12;;;;;;;;;;;19.90;99.90;;;;;;5071877;28;19974;-66
2022/09/07 08:48:38;;;;;;;;;;;20.00;99.90;;;;;;5071295;28;19913;-66
2022/09/07 08:51:04;;;;;;;;;;;20.10;99.90;;;;;;5074713;28;19916;-66
2022/09/07 08:53:30;;;;;;;;;;;20.10;99.90;;;;;;5060139;28;19958;-65
2022/09/07 08:56:04;;;;;;;;;;;20.10;99.90;;;;;;5064384;28;19959;-66
2022/09/07 08:58:30;;;;;;;;;;;20.10;99.90;;;;;;5072766;28;19923;-66
2022/09/07 09:00:55;;;;;;;;;;;20.20;99.90;;;;;;5073325;28;20283;-66
2022/09/07 09:03:24;;;;;;;;;;;20.30;99.90;;;;;;5073936;28;19920;-66
2022/09/07 09:06:02;;;;;;;;;;;20.20;99.90;;;;;;5074344;28;19912;-66
2022/09/07 09:08:50;;;;;;;;;;;20.10;99.90;;;;;;5068877;28;19912;-65
2022/09/07 09:11:35;;;;;;;;;;;20.10;99.90;;;;;;5058189;28;20226;-65
2022/09/07 09:14:05;;;;;;;;;;;20.30;99.90;;;;;;5072429;28;19912;-66
2022/09/07 09:16:42;;;;;;;;;;;20.40;99.90;;;;;;5062476;28;19977;-66
2022/09/07 09:19:17;;;;;;;;;;;20.40;99.90;;;;;;5066244;28;19912;-66
2022/09/07 09:21:42;;;;;;;;;;;20.30;99.90;;;;;;5067979;28;20319;-66
2022/09/07 09:24:11;;;;;;;;;;;20.30;99.90;;;;;;5072658;28;19916;-66
2022/09/07 09:26:38;;;;;;;;;;;20.20;99.90;;;;;;5071714;28;19951;-66
2022/09/07 09:29:14;;;;;;;;;;;20.20;99.90;;;;;;5073830;28;19959;-66
2022/09/07 09:31:39;;;;;;;;;;;19.90;99.90;;;;;;5070397;28;19943;-66
2022/09/07 09:34:16;;;;;;;;;;;20.20;99.90;;;;;;5072717;28;19967;-66
2022/09/07 09:36:49;;;;;;;;;;;20.30;99.90;;;;;;5065286;28;19916;-65
2022/09/07 09:39:27;;;;;;;;;;;20.50;99.90;;;;;;5066334;28;20011;-67
2022/09/07 09:41:54;;;;;;;;;;;20.60;99.90;;;;;;5061058;28;19920;-67
2022/09/07 09:44:20;;;;;;;;;;;20.50;99.90;;;;;;5066356;28;19928;-66
2022/09/07 09:46:51;;;;;;;;;;;20.40;99.90;;;;;;5068987;28;19935;-66
2022/09/07 09:49:17;;;;;;;;;;;20.40;99.90;;;;;;5067251;28;20535;-66
2022/09/07 09:51:44;;;;;;;;;;;20.50;99.90;;;;;;5062073;28;19948;-65
2022/09/07 09:54:25;;;;;;;;;;;20.60;99.90;;;;;;5064291;28;19916;-66
2022/09/07 09:56:52;;;;;;;;;;;20.70;99.90;;;;;;5063137;28;19919;-65
2022/09/07 09:59:17;;;;;;;;;;;20.70;99.90;;;;;;5041744;28;20007;-65
2022/09/07 10:01:47;;;;;;;;;;;20.60;99.90;;;;;;5062721;28;20292;-66
2022/09/07 10:04:33;;;;;;;;;;;20.50;99.90;;;;;;5047421;28;20314;-67
2022/09/07 10:07:13;;;;;;;;;;;20.30;99.90;;;;;;5043644;28;19931;-66
2022/09/07 10:09:40;;;;;;;;;;;20.20;99.90;;;;;;5054918;28;19920;-66
2022/09/07 10:12:07;;;;;;;;;;;20.00;99.90;;;;;;5063558;28;19932;-66
2022/09/07 10:14:51;;;;;;;;;;;19.90;99.90;;;;;;5061949;28;19925;-66
2022/09/07 10:17:20;;;;;;;;;;;20.10;99.90;;;;;;5062963;28;19924;-66
2022/09/07 10:19:47;;;;;;;;;;;20.30;99.90;;;;;;5064505;28;19920;-66
2022/09/07 10:22:21;;;;;;;;;;;20.40;99.90;;;;;;5065649;28;20023;-67
2022/09/07 10:24:47;;;;;;;;;;;20.50;99.90;;;;;;5063676;28;19912;-66
2022/09/07 10:27:28;;;;;;;;;;;20.70;99.90;;;;;;5048008;28;19923;-66
2022/09/07 10:29:54;;;;;;;;;;;20.70;99.90;;;;;;5065642;28;19912;-66
2022/09/07 10:32:23;;;;;;;;;;;20.60;99.90;;;;;;5065220;28;19920;-67
2022/09/07 10:35:15;;;;;;;;;;;20.30;99.90;;;;;;5062981;28;19912;-66
2022/09/07 10:37:41;;;;;;;;;;;20.30;99.90;;;;;;5024055;28;19962;-66
2022/09/07 10:40:15;;;;;;;;;;;20.40;99.90;;;;;;5058730;28;19920;-65
2022/09/07 10:42:46;;;;;;;;;;;20.60;99.90;;;;;;5059775;28;21500;-66
2022/09/07 10:45:22;;;;;;;;;;;20.90;99.90;;;;;;5059560;28;20062;-65
2022/09/07 10:48:06;;;;;;;;;;;20.90;99.90;;;;;;5062902;28;19928;-67
2022/09/07 10:50:38;;;;;;;;;;;21.10;99.90;;;;;;5060888;28;19920;-67
2022/09/07 10:53:03;;;;;;;;;;;21.10;99.90;;;;;;5061027;28;19998;-66
2022/09/07 10:55:31;;;;;;;;;;;21.20;99.90;;;;;;5064826;28;20378;-66
2022/09/07 10:58:06;;;;;;;;;;;21.00;99.90;;;;;;5069174;28;19943;-66
2022/09/07 11:00:39;;;;;;;;;;;20.80;99.90;;;;;;5039741;28;20004;-65
2022/09/07 11:03:11;;;;;;;;;;;20.90;99.90;;;;;;5059285;28;19971;-66
2022/09/07 11:05:49;;;;;;;;;;;21.10;99.90;;;;;;5063807;28;19916;-67
2022/09/07 11:08:33;;;;;;;;;;;21.20;99.90;;;;;;5066549;28;19927;-65
2022/09/07 11:11:02;;;;;;;;;;;21.20;99.90;;;;;;5072076;28;19916;-66
2022/09/07 11:13:30;;;;;;;;;;;21.10;99.90;;;;;;5059763;28;19916;-67
2022/09/07 11:15:56;;;;;;;;;;;20.80;99.90;;;;;;5057917;28;19923;-66
2022/09/07 11:18:24;;;;;;;;;;;20.40;99.90;;;;;;5057922;28;19961;-66
2022/09/07 11:20:54;;;;;;;;;;;20.60;99.90;;;;;;5066435;28;19916;-66
2022/09/07 11:23:25;;;;;;;;;;;20.70;99.90;;;;;;5062767;28;19920;-65
2022/09/07 11:26:04;;;;;;;;;;;20.50;99.90;;;;;;5056559;28;20026;-65
2022/09/07 11:28:37;;;;;;;;;;;20.10;99.90;;;;;;5059817;28;19974;-66
2022/09/07 11:31:05;;;;;;;;;;;20.00;99.90;;;;;;5059654;28;20291;-66
2022/09/07 11:33:34;;;;;;;;;;;19.90;99.90;;;;;;5067505;28;19913;-67
2022/09/07 11:36:05;;;;;;;;;;;20.20;99.90;;;;;;5065267;28;19974;-66
2022/09/07 11:38:37;;;;;;;;;;;20.40;99.90;;;;;;5062405;28;19913;-65
2022/09/07 11:41:23;;;;;;;;;;;20.50;99.90;;;;;;5056095;28;19913;-66
2022/09/07 11:43:59;;;;;;;;;;;20.60;99.90;;;;;;5050991;28;19920;-66
2022/09/07 11:46:35;;;;;;;;;;;20.80;99.90;;;;;;5061926;28;19921;-65
2022/09/07 11:49:04;;;;;;;;;;;21.10;99.90;;;;;;5061767;28;19946;-66
2022/09/07 11:51:51;;;;;;;;;;;21.20;99.90;;;;;;5061801;28;19928;-65
2022/09/07 11:54:26;;;;;;;;;;;21.00;99.90;;;;;;5040995;28;19967;-67
2022/09/07 11:56:57;;;;;;;;;;;21.30;99.90;;;;;;5059132;28;20058;-67
2022/09/07 11:59:55;;;;;;;;;;;21.40;99.90;;;;;;5063660;28;20420;-66
2022/09/07 12:02:21;;;;;;;;;;;21.60;99.90;;;;;;5013699;28;19966;-65
2022/09/07 12:05:05;;;;;;;;;;;21.50;99.90;;;;;;5057628;28;19960;-67
2022/09/07 12:07:39;;;;;;;;;;;21.60;99.90;;;;;;5056848;28;19920;-66
2022/09/07 12:10:05;;;;;;;;;;;21.50;99.90;;;;;;5044730;28;19913;-66
2022/09/07 12:12:44;;;;;;;;;;;21.70;99.90;;;;;;5062085;28;20248;-67
2022/09/07 12:15:12;;;;;;;;;;;21.60;99.90;;;;;;5060852;28;19912;-66
2022/09/07 12:17:48;;;;;;;;;;;21.50;99.90;;;;;;5063048;28;20324;-67
2022/09/07 12:20:14;;;;;;;;;;;21.60;99.90;;;;;;5064864;28;19955;-67
2022/09/07 12:22:58;;;;;;;;;;;21.80;99.90;;;;;;5067887;28;19986;-67
2022/09/07 12:25:24;;;;;;;;;;;22.00;99.90;;;;;;5060633;28;20065;-68
2022/09/07 12:27:50;;;;;;;;;;;22.20;99.90;;;;;;5066606;28;19995;-68
2022/09/07 12:30:17;;;;;;;;;;;22.10;99.90;;;;;;5067295;28;19915;-68
2022/09/07 12:32:45;;;;;;;;;;;22.30;99.90;;;;;;5072330;28;19931;-66
2022/09/07 12:35:32;;;;;;;;;;;22.40;99.90;;;;;;5063588;28;19916;-68
2022/09/07 12:37:58;;;;;;;;;;;22.40;99.90;;;;;;5066088;28;19917;-68
2022/09/07 12:40:26;;;;;;;;;;;22.30;99.90;;;;;;5073904;28;20004;-66
2022/09/07 12:43:11;;;;;;;;;;;22.10;99.90;;;;;;5069592;28;19932;-66
2022/09/07 12:45:36;;;;;;;;;;;22.00;99.90;;;;;;5071326;28;19916;-69
2022/09/07 12:48:08;;;;;;;;;;;22.00;99.90;;;;;;5069296;28;19913;-67
2022/09/07 12:50:35;;;;;;;;;;;22.30;99.90;;;;;;5069326;28;20381;-67
2022/09/07 12:53:21;;;;;;;;;;;22.30;99.90;;;;;;5067994;28;19913;-67
2022/09/07 12:55:59;;;;;;;;;;;22.10;99.90;;;;;;5062083;28;19913;-69
2022/09/07 12:58:24;;;;;;;;;;;22.10;96.70;;;;;;5065820;28;19920;-69
2022/09/07 13:01:09;;;;;;;;;;;22.10;96.20;;;;;;5073804;28;19936;-69
2022/09/07 13:03:44;;;;;;;;;;;22.00;96.70;;;;;;5065893;28;19928;-70
2022/09/07 13:06:10;;;;;;;;;;;22.10;94.90;;;;;;5049195;28;20371;-67
2022/09/07 13:08:49;;;;;;;;;;;22.20;94.70;;;;;;5066925;28;19928;-68
2022/09/07 13:11:20;;;;;;;;;;;22.10;93.20;;;;;;5069353;28;19974;-68
2022/09/07 13:13:54;;;;;;;;;;;22.20;92.00;;;;;;5044084;28;19920;-70
2022/09/07 13:16:27;;;;;;;;;;;22.20;91.80;;;;;;5046562;28;20386;-67
2022/09/07 13:18:53;;;;;;;;;;;22.20;92.40;;;;;;5053296;28;19912;-67
2022/09/07 13:21:29;;;;;;;;;;;22.20;91.20;;;;;;5063831;28;19962;-66
2022/09/07 13:24:17;;;;;;;;;;;22.10;90.70;;;;;;5062441;28;19921;-67
2022/09/07 13:26:50;;;;;;;;;;;22.10;91.10;;;;;;5064658;28;19982;-66
2022/09/07 13:29:17;;;;;;;;;;;22.30;91.20;;;;;;5067833;28;20021;-67
2022/09/07 13:31:51;;;;;;;;;;;22.30;90.60;;;;;;5064668;28;19960;-67
2022/09/07 13:34:32;;;;;;;;;;;22.50;90.40;;;;;;5068172;28;20429;-67
2022/09/07 13:36:58;;;;;;;;;;;22.70;86.60;;;;;;5069129;28;20531;-67
2022/09/07 13:39:24;;;;;;;;;;;22.50;86.60;;;;;;5071225;28;19988;-67
2022/09/07 13:41:51;;;;;;;;;;;22.20;87.00;;;;;;5068668;28;19946;-67
2022/09/07 13:44:19;;;;;;;;;;;22.20;88.00;;;;;;5065254;28;19970;-67
2022/09/07 13:46:58;;;;;;;;;;;22.20;89.70;;;;;;5069705;28;19912;-67
2022/09/07 13:49:35;;;;;;;;;;;22.30;89.30;;;;;;5066511;28;20278;-68
2022/09/07 13:52:20;;;;;;;;;;;22.50;90.00;;;;;;5053978;28;19925;-67
2022/09/07 13:55:06;;;;;;;;;;;22.60;87.00;;;;;;5065445;28;20274;-68
2022/09/07 13:57:41;;;;;;;;;;;22.80;87.90;;;;;;5053864;28;20367;-66
2022/09/07 14:00:12;;;;;;;;;;;22.90;85.60;;;;;;5067009;28;19923;-67
2022/09/07 14:02:38;;;;;;;;;;;22.80;83.80;;;;;;5066694;28;19921;-67
2022/09/07 14:05:05;;;;;;;;;;;22.50;85.30;;;;;;5072535;28;20416;-67
2022/09/07 14:07:31;;;;;;;;;;;22.60;86.30;;;;;;5064146;28;19958;-68
2022/09/07 14:10:10;;;;;;;;;;;22.60;84.50;;;;;;5068105;28;19920;-67
2022/09/07 14:12:43;;;;;;;;;;;22.70;86.10;;;;;;5070976;28;19966;-67
2022/09/07 14:15:16;;;;;;;;;;;22.50;83.40;;;;;;5068586;28;19996;-67
2022/09/07 14:17:43;;;;;;;;;;;22.10;84.10;;;;;;5067702;28;20353;-67
2022/09/07 14:20:12;;;;;;;;;;;22.00;87.20;;;;;;5063861;28;20275;-68
2022/09/07 14:22:38;;;;;;;;;;;22.00;86.20;;;;;;5060562;28;19973;-68
2022/09/07 14:25:05;;;;;;;;;;;22.00;86.30;;;;;;5064490;28;19921;-67
2022/09/07 14:27:36;;;;;;;;;;;22.10;87.20;;;;;;5065430;28;20014;-67
2022/09/07 14:30:24;;;;;;;;;;;22.20;86.40;;;;;;5070301;28;19916;-67